createdAt,value
2023-02-02T00:02:07.787Z,2.30
2023-02-02T00:04:37.235Z,3.67
2023-02-02T00:07:07.302Z,3.50
2023-02-02T00:09:35.031Z,2.15
2023-02-02T00:12:03.051Z,2.58
2023-02-02T00:14:30.809Z,3.15
2023-02-02T00:16:58.958Z,1.67
2023-02-02T00:19:31.350Z,2.13
2023-02-02T00:21:59.060Z,2.67
2023-02-02T00:24:26.836Z,2.50
2023-02-02T00:26:56.261Z,1.60
2023-02-02T00:29:25.696Z,2.17
2023-02-02T00:31:53.702Z,2.33
2023-02-02T00:34:22.284Z,1.92
2023-02-02T00:36:51.952Z,2.30
2023-02-02T00:39:21.741Z,4.72
2023-02-02T00:41:50.683Z,2.80
2023-02-02T00:44:33.461Z,3.22
2023-02-02T00:47:01.250Z,2.13
2023-02-02T00:49:29.002Z,2.40
2023-02-02T00:51:58.951Z,3.22
2023-02-02T00:54:26.708Z,2.80
2023-02-02T00:56:54.418Z,3.25
2023-02-02T00:59:22.105Z,2.55
2023-02-02T01:01:49.862Z,2.67
2023-02-02T01:04:17.604Z,2.53
2023-02-02T01:06:45.286Z,2.35
2023-02-02T01:09:14.288Z,1.92
2023-02-02T01:11:42.497Z,1.48
2023-02-02T01:14:10.294Z,2.85
2023-02-02T01:16:38.078Z,2.67
2023-02-02T01:19:05.782Z,2.20
2023-02-02T01:21:33.596Z,2.00
2023-02-02T01:24:01.352Z,1.98
2023-02-02T01:26:30.436Z,2.95
2023-02-02T01:28:58.759Z,2.45
2023-02-02T01:31:26.603Z,2.05
2023-02-02T01:33:54.506Z,2.60
2023-02-02T01:36:24.687Z,2.10
2023-02-02T01:38:52.813Z,2.25
2023-02-02T01:41:23.124Z,1.90
2023-02-02T01:43:55.038Z,3.17
2023-02-02T01:46:25.275Z,2.30
2023-02-02T01:48:59.302Z,2.35
2023-02-02T01:51:33.506Z,3.60
2023-02-02T01:54:01.917Z,2.15
2023-02-02T01:56:33.626Z,1.48
2023-02-02T01:59:04.166Z,2.72
2023-02-02T02:01:32.075Z,2.40
2023-02-02T02:04:00.414Z,3.05
2023-02-02T02:06:29.750Z,2.60
2023-02-02T02:09:01.056Z,2.47
2023-02-02T02:11:29.051Z,2.40
2023-02-02T02:14:13.644Z,2.75
2023-02-02T02:16:55.484Z,2.78
2023-02-02T02:20:03.162Z,3.38
2023-02-02T02:23:01.037Z,3.22
2023-02-02T02:26:08.181Z,2.10
2023-02-02T02:29:02.737Z,3.53
2023-02-02T02:31:53.082Z,2.88
2023-02-02T02:34:25.195Z,3.67
2023-02-02T02:36:59.293Z,2.72
2023-02-02T02:39:31.737Z,2.80
2023-02-02T02:42:04.780Z,2.90
2023-02-02T02:44:35.559Z,3.17
2023-02-02T02:47:05.180Z,3.13
2023-02-02T02:49:32.989Z,3.50
2023-02-02T02:52:00.845Z,3.55
2023-02-02T02:54:36.532Z,2.55
2023-02-02T02:57:21.639Z,3.90
2023-02-02T03:00:00.743Z,2.92
2023-02-02T03:02:40.763Z,3.35
2023-02-02T03:05:18.807Z,4.40
2023-02-02T03:07:52.700Z,3.13
2023-02-02T03:10:23.738Z,2.90
2023-02-02T03:12:52.657Z,5.25
2023-02-02T03:15:20.693Z,2.92
2023-02-02T03:17:51.328Z,2.53
2023-02-02T03:20:19.479Z,3.78
2023-02-02T03:22:47.212Z,4.50
2023-02-02T03:25:16.256Z,3.30
2023-02-02T03:27:44.260Z,3.10
2023-02-02T03:30:13.891Z,4.10
2023-02-02T03:32:42.494Z,3.53
2023-02-02T03:35:11.801Z,2.33
2023-02-02T03:37:39.511Z,2.85
2023-02-02T03:40:08.152Z,2.92
2023-02-02T03:42:35.970Z,2.30
2023-02-02T03:45:03.682Z,3.72
2023-02-02T03:47:32.038Z,3.25
2023-02-02T03:49:59.838Z,2.60
2023-02-02T03:52:28.870Z,4.25
2023-02-02T03:54:56.535Z,2.33
2023-02-02T03:57:24.255Z,2.90
2023-02-02T03:59:51.921Z,2.30
2023-02-02T04:02:19.655Z,2.80
2023-02-02T04:04:51.096Z,2.90
2023-02-02T04:07:18.814Z,2.50
2023-02-02T04:09:48.970Z,2.97
2023-02-02T04:12:16.674Z,2.83
2023-02-02T04:14:45.540Z,2.90
2023-02-02T04:17:13.183Z,2.17
2023-02-02T04:19:40.840Z,3.05
2023-02-02T04:22:08.505Z,2.30
2023-02-02T04:24:38.049Z,2.20
2023-02-02T04:27:07.173Z,2.45
2023-02-02T04:29:34.860Z,2.55
2023-02-02T04:32:02.511Z,2.65
2023-02-02T04:34:30.167Z,2.60
2023-02-02T04:36:57.869Z,3.00
2023-02-02T04:39:25.680Z,2.80
2023-02-02T04:41:53.582Z,2.88
2023-02-02T04:44:22.675Z,2.03
2023-02-02T04:46:50.340Z,2.28
2023-02-02T04:49:18.166Z,2.63
2023-02-02T04:51:45.935Z,2.50
2023-02-02T04:54:13.610Z,2.20
2023-02-02T04:56:41.286Z,2.30
2023-02-02T04:59:08.991Z,2.00
2023-02-02T05:01:37.990Z,1.83
2023-02-02T05:04:06.033Z,2.45
2023-02-02T05:06:33.770Z,2.45
2023-02-02T05:09:01.627Z,2.88
2023-02-02T05:11:33.046Z,1.90
2023-02-02T05:14:00.747Z,2.13
2023-02-02T05:16:29.200Z,3.50
2023-02-02T05:18:59.364Z,1.85
2023-02-02T05:21:27.205Z,5.40
2023-02-02T05:23:54.892Z,2.53
2023-02-02T05:26:25.709Z,1.88
2023-02-02T05:28:54.028Z,2.83
2023-02-02T05:31:23.090Z,2.47
2023-02-02T05:34:01.899Z,2.38
2023-02-02T05:36:40.616Z,2.60
2023-02-02T05:39:08.470Z,2.38
2023-02-02T05:41:36.167Z,2.92
2023-02-02T05:44:04.414Z,3.45
2023-02-02T05:46:32.239Z,2.08
2023-02-02T05:49:00.144Z,2.83
2023-02-02T05:51:32.767Z,2.40
2023-02-02T05:54:01.185Z,2.90
2023-02-02T05:56:28.917Z,1.83
2023-02-02T05:58:56.624Z,2.30
2023-02-02T06:01:24.504Z,2.35
2023-02-02T06:03:52.342Z,2.45
2023-02-02T06:06:20.146Z,3.22
2023-02-02T06:08:49.124Z,2.78
2023-02-02T06:11:18.315Z,1.85
2023-02-02T06:13:46.453Z,2.90
2023-02-02T06:16:14.336Z,2.90
2023-02-02T06:18:42.140Z,2.17
2023-02-02T06:21:10.826Z,3.33
2023-02-02T06:23:38.529Z,2.45
2023-02-02T06:26:08.141Z,3.15
2023-02-02T06:28:35.834Z,3.80
2023-02-02T06:31:05.972Z,2.90
2023-02-02T06:33:33.794Z,3.08
2023-02-02T06:36:02.441Z,2.60
2023-02-02T06:38:30.275Z,3.25
2023-02-02T06:41:00.434Z,2.88
2023-02-02T06:43:30.020Z,2.70
2023-02-02T06:45:58.730Z,2.90
2023-02-02T06:48:26.830Z,3.40
2023-02-02T06:50:54.818Z,3.35
2023-02-02T06:53:23.167Z,2.45
2023-02-02T06:55:54.543Z,3.03
2023-02-02T06:58:22.373Z,2.83
2023-02-02T07:00:51.650Z,3.25
2023-02-02T07:03:21.260Z,2.83
2023-02-02T07:05:49.321Z,2.60
2023-02-02T07:08:17.464Z,3.20
2023-02-02T07:11:13.380Z,2.70
2023-02-02T07:13:35.250Z,3.00
2023-02-02T07:16:05.711Z,2.67
2023-02-02T07:18:33.758Z,3.13
2023-02-02T07:21:02.055Z,3.20
2023-02-02T07:23:30.704Z,3.42
2023-02-02T07:26:02.927Z,2.67
2023-02-02T07:28:30.883Z,2.92
2023-02-02T07:30:58.699Z,3.55
2023-02-02T07:33:28.066Z,2.92
2023-02-02T07:35:55.885Z,3.53
2023-02-02T07:38:23.561Z,3.00
2023-02-02T07:40:51.322Z,3.22
2023-02-02T07:43:20.424Z,2.30
2023-02-02T07:45:50.180Z,2.67
2023-02-02T07:48:17.880Z,2.92
2023-02-02T07:50:47.250Z,2.67
2023-02-02T07:53:17.476Z,2.33
2023-02-02T07:55:45.187Z,3.55
2023-02-02T07:58:12.867Z,3.13
2023-02-02T08:00:42.158Z,2.55
2023-02-02T08:03:11.913Z,3.70
2023-02-02T08:05:39.750Z,3.00
2023-02-02T08:08:08.777Z,2.58
2023-02-02T08:10:36.506Z,2.70
2023-02-02T08:13:04.201Z,2.65
2023-02-02T08:15:32.030Z,4.38
2023-02-02T08:17:59.854Z,3.58
2023-02-02T08:20:27.535Z,2.72
2023-02-02T08:22:55.271Z,3.58
2023-02-02T08:25:25.716Z,4.25
2023-02-02T08:27:57.034Z,3.08
2023-02-02T08:30:25.149Z,2.50
2023-02-02T08:32:52.914Z,2.75
2023-02-02T08:35:21.631Z,3.08
2023-02-02T08:37:49.657Z,3.17
2023-02-02T08:40:18.513Z,2.88
2023-02-02T08:42:51.008Z,2.85
2023-02-02T08:46:03.305Z,2.85
2023-02-02T08:48:11.941Z,2.00
2023-02-02T08:50:40.900Z,3.25
2023-02-02T08:53:08.623Z,2.95
2023-02-02T08:55:36.373Z,2.40
2023-02-02T08:58:05.460Z,2.60
2023-02-02T09:00:33.188Z,3.00
2023-02-02T09:03:00.894Z,3.47
2023-02-02T09:05:28.627Z,2.30
2023-02-02T09:07:56.341Z,2.22
2023-02-02T09:10:24.047Z,2.92
2023-02-02T09:12:51.804Z,2.33
2023-02-02T09:15:20.830Z,1.98
2023-02-02T09:17:48.692Z,3.33
2023-02-02T09:20:16.398Z,2.33
2023-02-02T09:22:44.136Z,2.22
2023-02-02T09:25:11.824Z,2.88
2023-02-02T09:27:40.914Z,2.72
2023-02-02T09:30:10.409Z,3.15
2023-02-02T09:32:41.849Z,3.35
2023-02-02T09:35:09.967Z,2.78
2023-02-02T09:37:37.918Z,3.35
2023-02-02T09:40:06.271Z,2.72
2023-02-02T09:42:46.957Z,3.10
2023-02-02T09:45:23.120Z,2.90
2023-02-02T09:48:00.813Z,2.90
2023-02-02T09:50:40.501Z,2.90
2023-02-02T09:53:15.537Z,3.97
2023-02-02T09:55:48.084Z,3.45
2023-02-02T09:58:21.426Z,3.47
2023-02-02T10:00:57.172Z,3.05
2023-02-02T10:03:33.549Z,3.45
2023-02-02T10:06:07.268Z,3.85
2023-02-02T10:08:42.129Z,2.80
2023-02-02T10:11:26.630Z,3.58
2023-02-02T10:14:01.294Z,3.63
2023-02-02T10:16:30.874Z,3.50
2023-02-02T10:19:04.855Z,4.03
2023-02-02T10:21:40.789Z,3.38
2023-02-02T10:24:18.085Z,4.00
2023-02-02T10:26:49.552Z,3.38
2023-02-02T10:29:19.314Z,3.63
2023-02-02T10:32:00.217Z,4.25
2023-02-02T10:34:37.012Z,3.35
2023-02-02T10:37:17.794Z,3.40
2023-02-02T10:39:59.206Z,3.22
2023-02-02T10:42:36.447Z,2.50
2023-02-02T10:45:11.614Z,2.80
2023-02-02T10:47:39.580Z,4.05
2023-02-02T10:50:17.710Z,3.08
2023-02-02T10:52:49.629Z,2.40
2023-02-02T10:55:26.464Z,2.95
2023-02-02T10:58:02.153Z,3.63
2023-02-02T11:00:37.029Z,3.33
2023-02-02T11:03:09.522Z,2.95
2023-02-02T11:05:53.122Z,3.60
2023-02-02T11:08:33.334Z,2.63
2023-02-02T11:11:12.494Z,2.50
2023-02-02T11:13:44.671Z,2.55
2023-02-02T11:16:21.291Z,3.20
2023-02-02T11:18:49.910Z,4.57
2023-02-02T11:21:25.154Z,1.83
2023-02-02T11:23:55.503Z,2.90
2023-02-02T11:26:25.135Z,3.42
2023-02-02T11:28:55.838Z,2.50
2023-02-02T11:31:32.162Z,2.80
2023-02-02T11:34:11.796Z,2.63
2023-02-02T11:36:40.906Z,2.90
2023-02-02T11:39:17.295Z,3.30
2023-02-02T11:41:45.056Z,3.00
2023-02-02T11:44:24.862Z,3.67
2023-02-02T11:46:53.414Z,3.35
2023-02-02T11:49:24.094Z,2.75
2023-02-02T11:52:04.282Z,2.72
2023-02-02T11:54:34.398Z,3.70
2023-02-02T11:57:05.814Z,3.00
2023-02-02T11:59:39.426Z,2.92
2023-02-02T12:02:23.587Z,3.00
2023-02-02T12:04:54.129Z,2.20
2023-02-02T12:07:28.466Z,2.28
2023-02-02T12:10:01.304Z,3.05
2023-02-02T12:12:42.059Z,2.55
2023-02-02T12:15:21.791Z,2.10
2023-02-02T12:17:52.219Z,2.20
2023-02-02T12:20:28.775Z,4.00
2023-02-02T12:23:21.424Z,1.80
2023-02-02T12:26:04.346Z,2.45
2023-02-02T12:28:45.397Z,3.33
2023-02-02T12:31:27.212Z,3.10
2023-02-02T12:33:59.548Z,2.20
2023-02-02T12:36:39.780Z,2.97
2023-02-02T12:39:21.473Z,2.55
2023-02-02T12:42:12.869Z,4.28
2023-02-02T12:44:50.824Z,3.08
2023-02-02T12:47:25.312Z,3.60
2023-02-02T12:50:14.007Z,4.18
2023-02-02T12:52:55.943Z,3.05
2023-02-02T12:55:34.542Z,3.70
2023-02-02T12:58:11.563Z,3.53
2023-02-02T13:00:59.859Z,3.35
2023-02-02T13:03:37.307Z,2.67
2023-02-02T13:06:22.766Z,3.00
2023-02-02T13:08:58.633Z,3.70
2023-02-02T13:11:38.261Z,3.10
2023-02-02T13:14:10.708Z,3.65
2023-02-02T13:16:44.161Z,3.17
2023-02-02T13:19:21.835Z,5.32
2023-02-02T13:21:51.082Z,4.80
2023-02-02T13:24:31.508Z,4.90
2023-02-02T13:27:03.909Z,5.65
2023-02-02T13:29:37.900Z,2.53
2023-02-02T13:32:22.117Z,2.25
2023-02-02T13:34:56.975Z,3.63
2023-02-02T13:37:32.693Z,2.35
2023-02-02T13:40:05.963Z,3.15
2023-02-02T13:42:44.318Z,2.38
2023-02-02T13:45:33.454Z,3.15
2023-02-02T13:48:11.226Z,2.30
2023-02-02T13:50:54.436Z,2.40
2023-02-02T13:53:45.058Z,2.45
2023-02-02T13:56:35.235Z,2.78
2023-02-02T13:59:25.899Z,3.17
2023-02-02T14:01:54.833Z,2.20
2023-02-02T14:04:26.946Z,2.85
2023-02-02T14:06:57.928Z,2.50
2023-02-02T14:09:28.173Z,3.08
2023-02-02T14:12:00.043Z,3.10
2023-02-02T14:14:34.968Z,2.13
2023-02-02T14:17:05.649Z,2.53
2023-02-02T14:19:53.430Z,2.60
2023-02-02T14:22:40.433Z,3.17
2023-02-02T14:25:40.621Z,4.78
2023-02-02T14:28:12.585Z,2.67
2023-02-02T14:30:44.082Z,2.85
2023-02-02T14:33:37.977Z,2.53
2023-02-02T14:36:14.246Z,4.22
2023-02-02T14:39:00.859Z,3.05
2023-02-02T14:41:55.908Z,2.78
2023-02-02T14:44:23.925Z,3.15
2023-02-02T14:46:52.970Z,2.10
2023-02-02T14:49:25.696Z,2.83
2023-02-02T14:51:58.047Z,2.60
2023-02-02T14:54:31.406Z,2.35
2023-02-02T14:57:02.647Z,2.90
2023-02-02T14:59:34.028Z,2.20
2023-02-02T15:02:16.358Z,2.45
2023-02-02T15:04:48.290Z,2.22
2023-02-02T15:07:51.079Z,2.20
2023-02-02T15:11:00.959Z,2.97
2023-02-02T15:13:37.375Z,1.95
2023-02-02T15:16:13.922Z,2.05
2023-02-02T15:18:45.348Z,4.63
2023-02-02T15:21:21.937Z,2.70
2023-02-02T15:23:50.165Z,3.70
2023-02-02T15:26:24.116Z,1.50
2023-02-02T15:28:59.398Z,1.33
2023-02-02T15:31:34.413Z,2.40
2023-02-02T15:34:06.508Z,1.95
2023-02-02T15:36:38.395Z,2.05
2023-02-02T15:39:14.529Z,1.52
2023-02-02T15:41:44.881Z,1.45
2023-02-02T15:44:22.694Z,2.15
2023-02-02T15:46:50.667Z,2.13
2023-02-02T15:49:34.727Z,1.60
2023-02-02T15:52:13.458Z,2.15
2023-02-02T15:54:51.308Z,1.85
2023-02-02T15:57:27.292Z,1.95
2023-02-02T15:59:56.915Z,1.40
2023-02-02T16:02:32.927Z,1.38
2023-02-02T16:05:00.761Z,1.70
2023-02-02T16:07:31.183Z,2.55
2023-02-02T16:10:05.038Z,1.52
2023-02-02T16:12:35.155Z,1.50
2023-02-02T16:15:04.708Z,3.03
2023-02-02T16:17:35.356Z,1.15
2023-02-02T16:20:08.348Z,1.75
2023-02-02T16:22:37.339Z,1.40
2023-02-02T16:25:10.671Z,1.52
2023-02-02T16:27:38.936Z,1.52
2023-02-02T16:30:10.455Z,1.25
2023-02-02T16:32:40.146Z,1.65
2023-02-02T16:35:24.216Z,1.70
2023-02-02T16:37:52.143Z,1.40
2023-02-02T16:40:27.179Z,1.42
2023-02-02T16:43:05.977Z,2.10
2023-02-02T16:45:44.563Z,1.55
2023-02-02T16:48:29.039Z,1.75
2023-02-02T16:51:19.698Z,1.95
2023-02-02T16:53:49.507Z,2.00
2023-02-02T16:56:26.205Z,2.47
2023-02-02T16:58:58.866Z,2.72
2023-02-02T17:01:39.379Z,3.42
2023-02-02T17:04:17.023Z,2.00
2023-02-02T17:06:52.262Z,2.10
2023-02-02T17:09:34.846Z,1.70
2023-02-02T17:12:09.286Z,2.13
2023-02-02T17:14:51.881Z,1.70
2023-02-02T17:17:20.967Z,2.00
2023-02-02T17:19:48.819Z,2.00
2023-02-02T17:22:18.278Z,3.20
2023-02-02T17:24:48.767Z,1.98
2023-02-02T17:27:21.297Z,2.85
2023-02-02T17:29:49.412Z,2.22
2023-02-02T17:32:18.562Z,2.97
2023-02-02T17:34:47.659Z,2.30
2023-02-02T17:37:15.367Z,2.15
2023-02-02T17:39:44.259Z,1.35
2023-02-02T17:42:23.427Z,1.70
2023-02-02T17:44:51.163Z,1.65
2023-02-02T17:47:18.889Z,1.98
2023-02-02T17:49:48.107Z,1.30
2023-02-02T17:52:15.822Z,1.90
2023-02-02T17:54:43.937Z,1.48
2023-02-02T17:57:11.656Z,1.20
2023-02-02T17:59:39.344Z,1.88
2023-02-02T18:02:07.050Z,2.88
2023-02-02T18:04:34.731Z,1.48
2023-02-02T18:07:03.801Z,1.85
2023-02-02T18:09:33.969Z,1.33
2023-02-02T18:12:01.795Z,1.35
2023-02-02T18:14:29.875Z,1.23
2023-02-02T18:16:57.536Z,1.10
2023-02-02T18:19:25.230Z,1.15
2023-02-02T18:21:52.939Z,1.40
2023-02-02T18:24:22.117Z,1.60
2023-02-02T18:26:49.799Z,2.30
2023-02-02T18:29:17.650Z,2.15
2023-02-02T18:31:45.499Z,1.88
2023-02-02T18:34:13.203Z,1.45
2023-02-02T18:36:41.346Z,1.77
2023-02-02T18:39:09.845Z,1.70
2023-02-02T18:41:38.803Z,1.30
2023-02-02T18:44:08.999Z,2.20
2023-02-02T18:46:39.385Z,1.88
2023-02-02T18:49:07.471Z,1.30
2023-02-02T18:51:38.185Z,1.75
2023-02-02T18:54:32.281Z,1.52
2023-02-02T18:57:13.907Z,1.33
2023-02-02T18:59:42.890Z,1.85
2023-02-02T19:02:14.480Z,1.65
2023-02-02T19:05:04.099Z,2.72
2023-02-02T19:07:48.900Z,1.40
2023-02-02T19:10:17.961Z,1.10
2023-02-02T19:12:55.848Z,1.50
2023-02-02T19:15:25.309Z,1.50
2023-02-02T19:17:54.791Z,2.28
2023-02-02T19:20:27.615Z,2.20
2023-02-02T19:23:01.783Z,1.83
2023-02-02T19:25:29.740Z,1.70
2023-02-02T19:27:59.247Z,1.65
2023-02-02T19:30:27.347Z,1.90
2023-02-02T19:32:57.645Z,1.45
2023-02-02T19:35:27.601Z,3.00
2023-02-02T19:38:01.282Z,1.92
2023-02-02T19:40:29.515Z,1.75
2023-02-02T19:43:06.290Z,1.00
2023-02-02T19:45:35.760Z,1.77
2023-02-02T19:48:17.633Z,1.52
2023-02-02T19:50:46.191Z,1.92
2023-02-02T19:53:17.514Z,2.80
2023-02-02T19:55:45.218Z,5.25
2023-02-02T19:58:19.098Z,1.60
2023-02-02T20:00:47.853Z,1.10
2023-02-02T20:03:20.622Z,1.30
2023-02-02T20:05:50.479Z,1.00
2023-02-02T20:08:24.226Z,1.50
2023-02-02T20:10:52.946Z,1.42
2023-02-02T20:13:24.759Z,2.15
2023-02-02T20:16:03.321Z,1.60
2023-02-02T20:18:41.115Z,1.58
2023-02-02T20:21:18.461Z,1.60
2023-02-02T20:23:47.130Z,1.50
2023-02-02T20:26:23.099Z,1.35
2023-02-02T20:28:53.566Z,1.65
2023-02-02T20:31:24.087Z,1.15
2023-02-02T20:33:54.395Z,1.35
2023-02-02T20:36:31.521Z,1.35
2023-02-02T20:39:12.752Z,1.70
2023-02-02T20:41:40.432Z,1.30
2023-02-02T20:44:09.648Z,1.10
2023-02-02T20:46:37.471Z,1.08
2023-02-02T20:49:05.699Z,1.20
2023-02-02T20:51:37.051Z,1.20
2023-02-02T20:54:04.899Z,1.20
2023-02-02T20:56:32.548Z,1.10
2023-02-02T20:59:00.328Z,1.15
2023-02-02T21:01:31.209Z,1.30
2023-02-02T21:04:01.410Z,1.02
2023-02-02T21:06:29.921Z,1.38
2023-02-02T21:08:57.885Z,0.82
2023-02-02T21:11:26.782Z,1.05
2023-02-02T21:13:55.147Z,1.25
2023-02-02T21:16:23.101Z,1.20
2023-02-02T21:18:52.243Z,1.13
2023-02-02T21:21:22.409Z,1.27
2023-02-02T21:23:51.663Z,1.70
2023-02-02T21:26:21.997Z,1.20
2023-02-02T21:28:50.166Z,0.98
2023-02-02T21:31:18.926Z,0.80
2023-02-02T21:33:48.186Z,1.65
2023-02-02T21:36:29.327Z,1.15
2023-02-02T21:39:02.756Z,1.17
2023-02-02T21:41:32.806Z,1.25
2023-02-02T21:44:00.810Z,1.40
2023-02-02T21:46:36.574Z,2.60
2023-02-02T21:49:04.602Z,1.20
2023-02-02T21:51:36.915Z,1.30
2023-02-02T21:54:18.594Z,1.10
2023-02-02T21:56:46.357Z,1.45
2023-02-02T21:59:17.096Z,0.93
2023-02-02T22:01:45.943Z,1.90
2023-02-02T22:04:20.923Z,0.70
2023-02-02T22:06:51.758Z,1.00
2023-02-02T22:09:22.525Z,0.95
2023-02-02T22:11:53.542Z,1.08
2023-02-02T22:14:26.255Z,1.08
2023-02-02T22:16:57.410Z,1.23
2023-02-02T22:19:29.346Z,1.13
2023-02-02T22:22:14.653Z,0.93
2023-02-02T22:24:43.203Z,1.90
2023-02-02T22:27:28.568Z,1.30
2023-02-02T22:30:02.235Z,1.15
2023-02-02T22:32:29.959Z,1.38
2023-02-02T22:34:57.647Z,1.23
2023-02-02T22:37:26.683Z,1.02
2023-02-02T22:39:54.359Z,0.70
2023-02-02T22:42:22.043Z,0.98
2023-02-02T22:44:50.447Z,1.20
2023-02-02T22:47:18.522Z,1.48
2023-02-02T22:49:46.251Z,1.05
2023-02-02T22:52:13.941Z,1.27
2023-02-02T22:54:43.063Z,1.95
2023-02-02T22:57:10.746Z,2.05
2023-02-02T22:59:40.842Z,1.60
2023-02-02T23:02:08.529Z,1.02
2023-02-02T23:04:36.204Z,1.30
2023-02-02T23:07:03.966Z,1.48
2023-02-02T23:09:33.155Z,1.27
2023-02-02T23:12:02.147Z,0.85
2023-02-02T23:14:29.884Z,1.30
2023-02-02T23:16:58.759Z,1.30
2023-02-02T23:19:26.471Z,1.55
2023-02-02T23:21:54.148Z,0.93
2023-02-02T23:24:21.855Z,1.00
2023-02-02T23:26:49.694Z,1.55
2023-02-02T23:29:22.315Z,1.02
2023-02-02T23:31:50.118Z,1.13
2023-02-02T23:34:17.880Z,1.25
2023-02-02T23:36:46.056Z,1.33
2023-02-02T23:39:13.777Z,1.33
2023-02-02T23:41:41.550Z,1.20
2023-02-02T23:44:09.214Z,1.55
2023-02-02T23:46:39.573Z,1.17
2023-02-02T23:49:07.499Z,1.27
2023-02-02T23:51:35.489Z,1.70
2023-02-02T23:54:03.441Z,1.35
2023-02-02T23:56:32.431Z,1.40
2023-02-02T23:59:00.108Z,1.30
